GMMXGMML

Guest
Details From GMMX - MENARA
To GMML - HASSAN I
Flight Number -
Tags generated
Created
Modified
Stats Distance 382 nm / 708 km
Max Altitude 34,000 ft / 10,363 m
Waypoints 5
Social Downloads 3
Likes 0
Share VATSIM

Download

Looking for another format? Having issues loading an existing format? Contact us
Advertisement - Login to hide

Notes

Basic altitude profile: - Ascent Rate: 2500ft/min - Ascent Speed: 250kts - Cruise Altitude: 35000ft - Cruise Speed: 420kts - Descent Rate: 1500ft/min - Descent Speed: 250kts Options: - Use NATs: yes - Use PACOTS: yes - Use low airways: yes - Use high airways: yes

Route

GMMX ADM UA600 SOLNA A600 LAY GMML

ID Type Via Altitude Latitude Longitude Leg Dist Tot Dist Heading (true) Name
O GMMX APT - 0 ft / 0 m 31.60692˚ -8.03627˚ - 0 nm - MENARA
ADM VOR - 34,000 ft / 10,363 m 30.32194˚ -9.38333˚ 103 nm 103 nm 222° / 222° AGADIR VOR-DME
SOLNA FIX UA600 (AWY-HI) 24,500 ft / 7,468 m 27.66667˚ -12.59528˚ 232 nm 335 nm 227° / 226° -
LAY VOR A600 (AWY-LO) 5,500 ft / 1,676 m 27.14285˚ -13.21795˚ 45 nm 381 nm 227° / 226° LAAYOUNE VOR-DME
O GMML APT - 0 ft / 0 m 27.14365˚ -13.22540˚ 0 nm 382 nm 277° / 277° HASSAN I

Altitude Profile

Advertisement - Login to hide

Weather


0- 5 10 15 20 25 30 35+ Temperature / ° C

Clouds and Precipitation
Forecast for 2017-12-12 06:00 UTC. Updated an hour ago

Ground ~20,000 ft ~40,000 ft Winds

GMMX

Details ICAO GMMX (RAK)
Name MENARA
Region Morocco
Timezone Africa/Casablanca (UTC+0.0)
Stats Elevation 1,545 ft / 471 m (AMSL)
Location 31.606920° -8.036265°
Runways 1
Magnetic Variation 2.000° W

METAR

GMMX 120600Z 08004KT 9999 SCT026 SCT100 07/05 Q1013 NOSIG

Decode

TAF

TAF TAF GMMX 120500Z 1206/1312 02006KT 8000 SCT023 SCT090 PROB40 TEMPO 1207/1210 5000 RA TEMPO 1214/1220 30015KT

Decode

Departure Runways

ID Width Length Bearing (true) Bearing (mag) Surface Threshold Offset Overrun Length
10 148 ft / 45 m 10,169 ft / 3,100 m 95.99° 97.99° Asphalt 918 ft / 280 m 0 ft / 0 m
28 148 ft / 45 m 10,169 ft / 3,100 m 276.00° 278.00° Asphalt 0 ft / 0 m 0 ft / 0 m

GMML

Details ICAO GMML (EUN)
Name HASSAN I
Region Morocco
Timezone Africa/El_Aaiun (UTC+0.0)
Stats Elevation 207 ft / 63 m (AMSL)
Location 27.143650° -13.225399°
Runways 2
Magnetic Variation 3.958° W

METAR

Not found

TAF

TAF GMML 120500Z 1206/1312 04006KT 8000 SCT026 TEMPO 1206/1210 6000 -RA BKN016TCU BKN023 BECMG 1206/1208 FEW010 SCT030 PROB30 TEMPO 1214/1218 01015G25KT 3000 SA

Decode

Destination Runways

ID Width Length Bearing (true) Bearing (mag) Surface Threshold Offset Overrun Length
02 148 ft / 45 m 8,890 ft / 2,710 m 16.42° 20.38° Asphalt 0 ft / 0 m 200 ft / 61 m
04 148 ft / 45 m 8,221 ft / 2,506 m 31.58° 35.54° Asphalt 0 ft / 0 m 0 ft / 0 m
20 148 ft / 45 m 8,890 ft / 2,710 m 196.43° 200.39° Asphalt 0 ft / 0 m 200 ft / 61 m
22 148 ft / 45 m 8,221 ft / 2,506 m 211.59° 215.55° Asphalt 0 ft / 0 m 658 ft / 201 m

Popular Alternatives